createdAt,value
2023-03-29T00:02:13.365Z,10.60
2023-03-29T00:06:05.616Z,10.60
2023-03-29T00:09:48.125Z,10.60
2023-03-29T00:13:30.326Z,10.50
2023-03-29T00:17:12.066Z,10.50
2023-03-29T00:20:58.617Z,10.50
2023-03-29T00:24:40.503Z,10.50
2023-03-29T00:28:22.959Z,10.50
2023-03-29T00:32:05.191Z,10.50
2023-03-29T00:35:48.433Z,10.50
2023-03-29T00:39:30.769Z,10.50
2023-03-29T00:43:14.979Z,10.50
2023-03-29T00:46:56.741Z,10.60
2023-03-29T00:50:55.189Z,10.60
2023-03-29T00:54:37.987Z,10.60
2023-03-29T00:58:27.553Z,10.60
2023-03-29T01:02:10.378Z,10.60
2023-03-29T01:05:56.640Z,10.50
2023-03-29T01:09:41.456Z,10.50
2023-03-29T01:13:39.664Z,10.50
2023-03-29T01:17:22.012Z,10.50
2023-03-29T01:21:37.890Z,10.50
2023-03-29T01:26:01.053Z,10.50
2023-03-29T01:29:45.975Z,10.60
2023-03-29T01:33:33.886Z,10.60
2023-03-29T01:37:32.897Z,10.60
2023-03-29T01:41:14.709Z,10.60
2023-03-29T01:45:17.828Z,10.60
2023-03-29T01:49:13.479Z,10.60
2023-03-29T01:53:01.232Z,10.60
2023-03-29T01:56:45.676Z,10.60
2023-03-29T02:00:29.570Z,10.60
2023-03-29T02:04:14.134Z,10.60
2023-03-29T02:07:58.323Z,10.60
2023-03-29T02:11:41.848Z,10.60
2023-03-29T02:15:23.643Z,10.60
2023-03-29T02:19:07.932Z,10.50
2023-03-29T02:22:49.951Z,10.50
2023-03-29T02:26:32.339Z,10.50
2023-03-29T02:30:17.490Z,10.50
2023-03-29T02:34:07.918Z,10.50
2023-03-29T02:37:54.670Z,10.50
2023-03-29T02:41:38.532Z,10.50
2023-03-29T02:45:20.718Z,10.50
2023-03-29T02:49:05.135Z,10.50
2023-03-29T02:52:54.559Z,10.50
2023-03-29T02:57:08.538Z,10.50
2023-03-29T03:00:50.426Z,10.50
2023-03-29T03:04:34.096Z,10.50
2023-03-29T03:08:15.896Z,10.50
2023-03-29T03:11:57.603Z,10.50
2023-03-29T03:15:42.683Z,10.50
2023-03-29T03:19:24.847Z,10.50
2023-03-29T03:23:08.966Z,10.50
2023-03-29T03:26:50.706Z,10.50
2023-03-29T03:30:33.830Z,10.50
2023-03-29T03:34:15.629Z,10.50
2023-03-29T03:37:57.879Z,10.50
2023-03-29T03:41:39.887Z,10.50
2023-03-29T03:45:21.661Z,10.50
2023-03-29T03:49:04.596Z,10.50
2023-03-29T03:52:46.527Z,10.50
2023-03-29T03:56:29.842Z,10.60
2023-03-29T04:00:21.464Z,10.60
2023-03-29T04:04:03.397Z,10.50
2023-03-29T04:07:45.350Z,10.60
2023-03-29T04:11:27.062Z,10.60
2023-03-29T04:15:10.484Z,10.70
2023-03-29T04:18:52.269Z,10.70
2023-03-29T04:22:34.007Z,10.60
2023-03-29T04:26:15.982Z,10.60
2023-03-29T04:29:57.890Z,10.50
2023-03-29T04:33:40.022Z,10.50
2023-03-29T04:37:22.349Z,10.40
2023-03-29T04:41:05.048Z,10.40
2023-03-29T04:44:46.973Z,10.40
2023-03-29T04:48:31.552Z,10.40
2023-03-29T04:52:14.576Z,10.40
2023-03-29T04:55:57.945Z,10.30
2023-03-29T04:59:39.679Z,10.30
2023-03-29T05:03:21.918Z,10.40
2023-03-29T05:07:04.482Z,10.30
2023-03-29T05:10:46.884Z,10.30
2023-03-29T05:14:28.638Z,10.40
2023-03-29T05:18:10.644Z,10.30
2023-03-29T05:21:53.104Z,10.30
2023-03-29T05:25:35.008Z,10.30
2023-03-29T05:29:17.137Z,10.30
2023-03-29T05:33:01.588Z,10.30
2023-03-29T05:36:45.363Z,10.30
2023-03-29T05:40:28.028Z,10.30
2023-03-29T05:44:09.718Z,10.30
2023-03-29T05:47:51.877Z,10.30
2023-03-29T05:51:33.607Z,10.30
2023-03-29T05:55:15.593Z,10.30
2023-03-29T05:58:57.296Z,10.30
2023-03-29T06:02:39.150Z,10.30
2023-03-29T06:06:21.350Z,10.30
2023-03-29T06:10:04.858Z,10.30
2023-03-29T06:13:46.644Z,10.30
2023-03-29T06:17:29.215Z,10.30
2023-03-29T06:21:11.153Z,10.40
2023-03-29T06:24:52.882Z,10.40
2023-03-29T06:28:34.625Z,10.40
2023-03-29T06:32:16.929Z,10.40
2023-03-29T06:35:58.964Z,10.40
2023-03-29T06:39:41.040Z,10.40
2023-03-29T06:43:22.778Z,10.50
2023-03-29T06:47:05.083Z,10.50
2023-03-29T06:50:48.644Z,10.50
2023-03-29T06:54:31.300Z,10.60
2023-03-29T06:58:13.955Z,10.60
2023-03-29T07:01:55.782Z,10.60
2023-03-29T07:05:40.762Z,10.70
2023-03-29T07:09:22.489Z,10.70
2023-03-29T07:13:08.801Z,10.80
2023-03-29T07:16:51.973Z,10.80
2023-03-29T07:20:34.067Z,10.80
2023-03-29T07:24:16.645Z,10.80
2023-03-29T07:27:58.584Z,10.90
2023-03-29T07:31:41.576Z,10.90
2023-03-29T07:35:23.376Z,10.90
2023-03-29T07:39:12.903Z,11.00
2023-03-29T07:42:56.644Z,11.00
2023-03-29T07:46:38.477Z,11.10
2023-03-29T07:50:20.281Z,11.10
2023-03-29T07:54:02.076Z,11.10
2023-03-29T07:57:44.519Z,11.10
2023-03-29T08:01:26.340Z,11.20
2023-03-29T08:05:08.782Z,11.20
2023-03-29T08:08:50.618Z,11.30
2023-03-29T08:12:32.437Z,11.30
2023-03-29T08:16:14.240Z,11.30
2023-03-29T08:19:56.248Z,11.30
2023-03-29T08:23:38.251Z,11.30
2023-03-29T08:27:20.232Z,11.30
2023-03-29T08:31:02.230Z,11.30
2023-03-29T08:34:44.197Z,11.30
2023-03-29T08:38:27.083Z,11.40
2023-03-29T08:42:32.015Z,11.40
2023-03-29T08:46:24.131Z,11.40
2023-03-29T08:50:07.556Z,11.50
2023-03-29T08:53:58.205Z,11.50
2023-03-29T08:57:47.687Z,11.60
2023-03-29T09:01:35.366Z,11.70
2023-03-29T09:05:39.380Z,11.70
2023-03-29T09:09:23.416Z,11.80
2023-03-29T09:13:16.760Z,11.80
2023-03-29T09:17:09.989Z,11.80
2023-03-29T09:21:02.125Z,11.90
2023-03-29T09:24:54.019Z,11.90
2023-03-29T09:28:55.060Z,11.90
2023-03-29T09:32:52.317Z,11.90
2023-03-29T09:36:58.420Z,12.00
2023-03-29T09:40:45.132Z,12.10
2023-03-29T09:44:43.940Z,12.10
2023-03-29T09:48:29.142Z,12.20
2023-03-29T09:52:14.620Z,12.20
2023-03-29T09:55:56.620Z,12.20
2023-03-29T09:59:38.479Z,12.30
2023-03-29T10:03:22.430Z,12.30
2023-03-29T10:07:06.381Z,12.30
2023-03-29T10:10:48.690Z,12.30
2023-03-29T10:14:35.584Z,12.30
2023-03-29T10:18:17.791Z,12.30
2023-03-29T10:22:02.269Z,12.30
2023-03-29T10:25:44.477Z,12.40
2023-03-29T10:29:27.786Z,12.40
2023-03-29T10:33:19.398Z,12.40
2023-03-29T10:37:02.054Z,12.40
2023-03-29T10:40:52.054Z,12.40
2023-03-29T10:44:36.482Z,12.40
2023-03-29T10:48:19.404Z,12.40
2023-03-29T10:52:02.020Z,12.40
2023-03-29T10:56:23.027Z,12.40
2023-03-29T11:00:22.867Z,12.50
2023-03-29T11:04:12.531Z,12.50
2023-03-29T11:08:18.224Z,12.50
2023-03-29T11:12:24.164Z,12.60
2023-03-29T11:16:20.711Z,12.60
2023-03-29T11:20:17.514Z,12.50
2023-03-29T11:24:27.501Z,12.60
2023-03-29T11:28:12.058Z,12.60
2023-03-29T11:32:29.104Z,12.70
2023-03-29T11:36:19.623Z,12.70
2023-03-29T11:40:13.629Z,12.80
2023-03-29T11:44:01.677Z,12.80
2023-03-29T11:47:45.491Z,12.80
2023-03-29T11:51:33.801Z,12.90
2023-03-29T11:55:19.300Z,12.80
2023-03-29T11:59:08.154Z,12.80
2023-03-29T12:03:38.524Z,12.80
2023-03-29T12:07:29.388Z,12.70
2023-03-29T12:11:13.972Z,12.70
2023-03-29T12:15:15.794Z,12.70
2023-03-29T12:19:01.331Z,12.70
2023-03-29T12:22:46.801Z,12.70
2023-03-29T12:26:53.805Z,12.70
2023-03-29T12:31:07.547Z,12.70
2023-03-29T12:35:08.645Z,12.60
2023-03-29T12:38:52.681Z,12.60
2023-03-29T12:42:34.444Z,12.60
2023-03-29T12:46:27.477Z,12.60
2023-03-29T12:50:25.642Z,12.60
2023-03-29T12:54:22.787Z,12.50
2023-03-29T12:58:08.599Z,12.60
2023-03-29T13:02:17.648Z,12.60
2023-03-29T13:06:02.676Z,12.60
2023-03-29T13:09:53.810Z,12.50
2023-03-29T13:13:40.933Z,12.50
2023-03-29T13:17:30.864Z,12.50
2023-03-29T13:21:53.209Z,12.50
2023-03-29T13:25:59.293Z,12.40
2023-03-29T13:30:00.090Z,12.30
2023-03-29T13:33:53.040Z,12.30
2023-03-29T13:38:03.632Z,12.30
2023-03-29T13:41:54.203Z,12.20
2023-03-29T13:45:36.345Z,12.10
2023-03-29T13:49:23.357Z,12.20
2023-03-29T13:53:12.451Z,12.20
2023-03-29T13:56:55.082Z,12.20
2023-03-29T14:00:46.231Z,12.20
2023-03-29T14:04:32.420Z,12.20
2023-03-29T14:08:20.904Z,12.30
2023-03-29T14:12:02.946Z,12.30
2023-03-29T14:16:02.652Z,12.40
2023-03-29T14:19:45.598Z,12.40
2023-03-29T14:23:30.285Z,12.50
2023-03-29T14:27:12.574Z,12.50
2023-03-29T14:30:56.019Z,12.50
2023-03-29T14:34:38.493Z,12.60
2023-03-29T14:38:22.178Z,12.60
2023-03-29T14:42:04.072Z,12.60
2023-03-29T14:45:46.616Z,12.60
2023-03-29T14:49:28.944Z,12.60
2023-03-29T14:53:19.550Z,12.60
2023-03-29T14:57:07.168Z,12.60
2023-03-29T15:00:52.350Z,12.60
2023-03-29T15:04:37.496Z,12.60
2023-03-29T15:08:42.588Z,12.60
2023-03-29T15:12:32.317Z,12.60
2023-03-29T15:16:16.829Z,12.60
2023-03-29T15:20:09.857Z,12.50
2023-03-29T15:23:56.831Z,12.50
2023-03-29T15:27:42.546Z,12.50
2023-03-29T15:31:38.109Z,12.40
2023-03-29T15:35:25.294Z,12.40
2023-03-29T15:39:10.796Z,12.40
2023-03-29T15:42:54.698Z,12.40
2023-03-29T15:46:36.962Z,12.40
2023-03-29T15:50:18.908Z,12.30
2023-03-29T15:54:00.916Z,12.30
2023-03-29T15:57:46.354Z,12.30
2023-03-29T16:01:40.242Z,12.30
2023-03-29T16:05:22.153Z,12.30
2023-03-29T16:09:06.255Z,12.30
2023-03-29T16:12:47.970Z,12.30
2023-03-29T16:16:29.840Z,12.30
2023-03-29T16:20:14.945Z,12.30
2023-03-29T16:23:56.827Z,12.30
2023-03-29T16:27:38.616Z,12.30
2023-03-29T16:31:20.555Z,12.30
2023-03-29T16:35:04.536Z,12.30
2023-03-29T16:38:46.293Z,12.30
2023-03-29T16:42:27.998Z,12.30
2023-03-29T16:46:11.277Z,12.30
2023-03-29T16:49:53.113Z,12.30
2023-03-29T16:53:35.683Z,12.30
2023-03-29T16:57:17.473Z,12.30
2023-03-29T17:01:14.091Z,12.30
2023-03-29T17:04:57.190Z,12.30
2023-03-29T17:08:39.512Z,12.30
2023-03-29T17:12:21.546Z,12.30
2023-03-29T17:16:03.575Z,12.30
2023-03-29T17:19:45.524Z,12.30
2023-03-29T17:23:27.446Z,12.30
2023-03-29T17:27:09.490Z,12.30
2023-03-29T17:30:51.431Z,12.30
2023-03-29T17:34:34.302Z,12.30
2023-03-29T17:38:16.106Z,12.30
2023-03-29T17:41:57.809Z,12.30
2023-03-29T17:45:39.570Z,12.30
2023-03-29T17:49:21.372Z,12.30
2023-03-29T17:53:03.543Z,12.30
2023-03-29T17:56:46.334Z,12.30
2023-03-29T18:00:28.121Z,12.30
2023-03-29T18:04:09.959Z,12.30
2023-03-29T18:07:51.910Z,12.30
2023-03-29T18:11:33.712Z,12.30
2023-03-29T18:15:15.607Z,12.30
2023-03-29T18:18:57.390Z,12.30
2023-03-29T18:22:42.370Z,12.30
2023-03-29T18:26:25.092Z,12.30
2023-03-29T18:30:08.694Z,12.30
2023-03-29T18:33:50.743Z,12.30
2023-03-29T18:37:32.491Z,12.30
2023-03-29T18:41:14.606Z,12.30
2023-03-29T18:44:56.303Z,12.30
2023-03-29T18:48:41.749Z,12.30
2023-03-29T18:52:23.589Z,12.30
2023-03-29T18:56:06.511Z,12.30
2023-03-29T18:59:48.401Z,12.30
2023-03-29T19:03:31.180Z,12.30
2023-03-29T19:07:13.354Z,12.30
2023-03-29T19:11:01.435Z,12.30
2023-03-29T19:14:43.068Z,12.30
2023-03-29T19:18:25.231Z,12.30
2023-03-29T19:22:07.482Z,12.30
2023-03-29T19:25:57.110Z,12.20
2023-03-29T19:29:39.149Z,12.20
2023-03-29T19:33:20.960Z,12.20
2023-03-29T19:37:02.702Z,12.20
2023-03-29T19:40:46.339Z,12.20
2023-03-29T19:44:28.127Z,12.20
2023-03-29T19:51:54.847Z,12.20
2023-03-29T19:55:37.779Z,12.10
2023-03-29T19:59:20.169Z,12.10
2023-03-29T20:03:02.249Z,12.10
2023-03-29T20:06:44.511Z,12.10
2023-03-29T20:10:26.244Z,12.10
2023-03-29T20:14:08.431Z,12.10
2023-03-29T20:17:51.416Z,12.10
2023-03-29T20:21:42.987Z,12.10
2023-03-29T20:25:26.026Z,12.10
2023-03-29T20:29:08.257Z,12.10
2023-03-29T20:32:50.347Z,12.10
2023-03-29T20:36:32.256Z,12.10
2023-03-29T20:40:15.614Z,12.10
2023-03-29T20:44:02.822Z,12.10
2023-03-29T20:47:57.923Z,12.10
2023-03-29T20:51:40.384Z,12.10
2023-03-29T20:55:23.620Z,12.00
2023-03-29T20:59:06.947Z,12.10
2023-03-29T21:02:48.821Z,12.00
2023-03-29T21:06:31.570Z,12.00
2023-03-29T21:10:14.246Z,12.00
2023-03-29T21:13:55.979Z,12.00
2023-03-29T21:17:38.052Z,12.00
2023-03-29T21:21:19.868Z,12.00
2023-03-29T21:25:02.126Z,12.00
2023-03-29T21:28:43.914Z,12.00
2023-03-29T21:32:25.736Z,12.00
2023-03-29T21:36:08.335Z,11.90
2023-03-29T21:39:50.534Z,11.90
2023-03-29T21:43:32.247Z,11.90
2023-03-29T21:47:14.016Z,11.90
2023-03-29T21:50:55.791Z,11.90
2023-03-29T21:54:37.593Z,11.90
2023-03-29T21:58:20.247Z,11.90
2023-03-29T22:02:02.156Z,11.90
2023-03-29T22:05:54.601Z,11.90
2023-03-29T22:09:36.723Z,11.80
2023-03-29T22:13:18.451Z,11.80
2023-03-29T22:17:00.717Z,11.90
2023-03-29T22:20:42.494Z,11.90
2023-03-29T22:24:24.260Z,11.90
2023-03-29T22:28:06.054Z,11.90
2023-03-29T22:31:47.911Z,11.80
2023-03-29T22:35:29.789Z,11.80
2023-03-29T22:39:12.046Z,11.80
2023-03-29T22:42:53.802Z,11.80
2023-03-29T22:46:35.722Z,11.70
2023-03-29T22:50:17.675Z,11.70
2023-03-29T22:53:59.470Z,11.60
2023-03-29T22:57:41.563Z,11.60
2023-03-29T23:01:23.319Z,11.60
2023-03-29T23:05:06.124Z,11.60
2023-03-29T23:08:47.863Z,11.60
2023-03-29T23:12:31.088Z,11.60
2023-03-29T23:16:12.827Z,11.70
2023-03-29T23:19:54.546Z,11.70
2023-03-29T23:23:36.959Z,11.70
2023-03-29T23:27:20.072Z,11.70
2023-03-29T23:31:10.536Z,11.80
2023-03-29T23:34:52.413Z,11.80
2023-03-29T23:38:35.511Z,11.80
2023-03-29T23:42:17.335Z,11.70
2023-03-29T23:46:11.229Z,11.80
2023-03-29T23:49:53.208Z,11.80
2023-03-29T23:53:35.120Z,11.70
2023-03-29T23:57:16.901Z,11.70
